< Typhoon 195113 1951 Season Typhoon 195115 >
Typhoon 195114 (PAT)
General InformationTrack Information on Google Maps || Disaster Info.ResourceGoogle EarthGE AnimationAtom FeedGeoJSON
Detalied Best Track (Time Zone = UTC)
Year Month Day Hour Lat. Long. Pressure (hPa) Wind (kt) Class Image Chart
1951 9 20 00 8.0 137.0 1008 0 2 -- Chart
1951 9 20 06 8.1 136.7 1006 0 2 -- Chart
1951 9 20 12 8.3 136.4 1006 0 2 -- Chart
1951 9 20 18 8.5 135.8 1006 0 2 -- Chart
1951 9 21 00 8.7 135.3 1006 0 2 -- Chart
1951 9 21 06 9.3 134.8 1006 0 2 -- Chart
1951 9 21 12 9.8 134.2 1006 0 2 -- Chart
1951 9 21 18 10.5 133.5 1006 0 2 -- Chart
1951 9 22 00 11.3 132.8 1006 0 2 -- Chart
1951 9 22 06 11.8 132.2 1006 0 2 -- Chart
1951 9 22 12 12.3 131.5 1006 0 2 -- Chart
1951 9 22 18 12.7 130.7 1006 0 2 -- Chart
1951 9 23 00 13.4 129.5 1004 0 2 -- Chart
1951 9 23 06 14.0 128.0 1002 0 2 -- Chart
1951 9 23 12 14.8 126.3 1002 0 2 -- Chart
1951 9 23 18 15.8 124.3 1000 0 2 -- Chart
1951 9 24 00 17.1 122.3 1000 0 2 -- Chart
1951 9 24 06 18.5 119.7 1000 0 2 -- Chart
1951 9 24 12 19.0 119.0 1000 0 2 -- Chart
1951 9 24 18 19.5 118.3 998 0 2 -- Chart
1951 9 25 00 20.0 117.5 995 0 9 -- Chart
1951 9 25 06 20.4 116.7 990 0 9 -- Chart
1951 9 25 12 21.0 117.1 990 0 9 -- Chart
1951 9 25 18 21.6 118.1 990 0 9 -- Chart
1951 9 26 00 22.2 119.4 980 0 9 -- Chart
1951 9 26 06 23.0 119.7 980 0 9 -- Chart
1951 9 26 12 23.5 120.0 980 0 9 -- Chart
1951 9 26 18 24.0 120.2 990 0 9 -- Chart
1951 9 27 00 24.5 120.5 995 0 9 -- Chart
1951 9 27 06 25.0 120.7 995 0 9 -- Chart
1951 9 27 12 26.0 121.0 998 0 9 -- Chart
1951 9 27 18 27.0 121.1 998 0 9 -- Chart
1951 9 28 00 28.0 121.2 998 0 9 -- Chart
1951 9 28 06 29.0 121.3 998 0 9 -- Chart
1951 9 28 12 30.0 121.4 998 0 6 -- Chart
1951 9 28 18 31.8 122.3 998 0 6 -- Chart
1951 9 29 00 33.3 124.0 998 0 6 -- Chart
1951 9 29 06 35.8 126.5 998 0 6 -- Chart
1951 9 29 12 38.0 129.4 1000 0 6 -- Chart
1951 9 29 18 39.5 131.7 1000 0 6 -- Chart
1951 9 30 00 41.0 134.0 1000 0 6 -- Chart
1951 9 30 06 43.0 136.8 1000 0 6 -- Chart
1951 9 30 12 44.5 139.0 1000 0 6 -- Chart
1951 9 30 18 46.0 141.0 1000 0 6 -- Chart
1951 10 1 00 47.3 143.0 1002 0 6 -- Chart
1951 10 1 06 48.6 145.0 1002 0 6 -- Chart
1951 10 1 12 48.8 146.0 1000 0 6 -- Chart
1951 10 1 18 49.1 147.0 998 0 6 -- Chart
1951 10 2 00 50.0 151.0 998 0 6 -- Chart
1951 10 2 06 51.0 155.0 996 0 6 -- Chart
1951 10 2 12 51.0 159.0 998 0 6 -- Chart
1951 10 2 18 50.0 164.0 1000 0 6 -- Chart
1951 10 3 00 51.4 169.0 1000 0 6 -- Chart
1951 10 3 06 52.0 174.0 996 0 6 -- Chart
1951 10 3 12 51.0 178.0 996 0 6 -- Chart
Japan Meteorological Agency Best Track Data | Correction Date : 1989-06-01
< Typhoon 195113 1951 Season Typhoon 195115 >

Help